sensor_id;sensor_type;location;lat;lon;timestamp;P1;durP1;ratioP1;P2;durP2;ratioP2
73779;SDS011;62093;37.614;15.072;2023-06-22T00:00:52;6.50;;;3.78;;
73779;SDS011;62093;37.614;15.072;2023-06-22T00:03:20;6.07;;;3.77;;
73779;SDS011;62093;37.614;15.072;2023-06-22T00:05:47;6.53;;;3.70;;
73779;SDS011;62093;37.614;15.072;2023-06-22T00:08:14;6.00;;;3.83;;
73779;SDS011;62093;37.614;15.072;2023-06-22T00:10:40;6.53;;;3.80;;
73779;SDS011;62093;37.614;15.072;2023-06-22T00:13:07;7.18;;;4.15;;
73779;SDS011;62093;37.614;15.072;2023-06-22T00:15:34;6.33;;;3.77;;
73779;SDS011;62093;37.614;15.072;2023-06-22T00:18:00;5.78;;;3.58;;
73779;SDS011;62093;37.614;15.072;2023-06-22T00:20:26;6.28;;;3.95;;
73779;SDS011;62093;37.614;15.072;2023-06-22T00:22:55;6.68;;;4.10;;
73779;SDS011;62093;37.614;15.072;2023-06-22T00:25:23;6.30;;;3.40;;
73779;SDS011;62093;37.614;15.072;2023-06-22T00:27:49;6.00;;;3.70;;
73779;SDS011;62093;37.614;15.072;2023-06-22T00:30:15;6.43;;;3.65;;
73779;SDS011;62093;37.614;15.072;2023-06-22T00:32:42;6.20;;;4.05;;
73779;SDS011;62093;37.614;15.072;2023-06-22T00:35:09;7.15;;;3.97;;
73779;SDS011;62093;37.614;15.072;2023-06-22T00:37:36;5.97;;;3.70;;
73779;SDS011;62093;37.614;15.072;2023-06-22T00:40:02;6.20;;;3.75;;
73779;SDS011;62093;37.614;15.072;2023-06-22T00:42:30;5.68;;;3.42;;
73779;SDS011;62093;37.614;15.072;2023-06-22T00:44:56;5.82;;;3.38;;
73779;SDS011;62093;37.614;15.072;2023-06-22T00:47:23;6.93;;;3.97;;
73779;SDS011;62093;37.614;15.072;2023-06-22T00:49:49;6.07;;;3.60;;
73779;SDS011;62093;37.614;15.072;2023-06-22T00:52:19;6.55;;;3.83;;
73779;SDS011;62093;37.614;15.072;2023-06-22T00:54:48;6.30;;;3.60;;
73779;SDS011;62093;37.614;15.072;2023-06-22T00:57:15;6.07;;;4.00;;
73779;SDS011;62093;37.614;15.072;2023-06-22T00:59:43;6.00;;;3.60;;
73779;SDS011;62093;37.614;15.072;2023-06-22T01:02:09;5.83;;;3.40;;
73779;SDS011;62093;37.614;15.072;2023-06-22T01:04:36;6.13;;;3.58;;
73779;SDS011;62093;37.614;15.072;2023-06-22T01:07:22;6.05;;;3.50;;
73779;SDS011;62093;37.614;15.072;2023-06-22T01:12:45;6.72;;;3.72;;
73779;SDS011;62093;37.614;15.072;2023-06-22T01:18:17;6.50;;;3.50;;
73779;SDS011;62093;37.614;15.072;2023-06-22T01:20:45;7.05;;;3.60;;
73779;SDS011;62093;37.614;15.072;2023-06-22T01:23:17;6.28;;;3.70;;
73779;SDS011;62093;37.614;15.072;2023-06-22T01:25:59;7.00;;;3.95;;
73779;SDS011;62093;37.614;15.072;2023-06-22T01:31:16;5.65;;;3.50;;
73779;SDS011;62093;37.614;15.072;2023-06-22T01:33:48;6.30;;;3.40;;
73779;SDS011;62093;37.614;15.072;2023-06-22T01:36:23;5.60;;;3.35;;
73779;SDS011;62093;37.614;15.072;2023-06-22T01:38:49;5.68;;;3.63;;
73779;SDS011;62093;37.614;15.072;2023-06-22T01:41:18;5.90;;;3.73;;
73779;SDS011;62093;37.614;15.072;2023-06-22T01:43:46;6.20;;;3.50;;
73779;SDS011;62093;37.614;15.072;2023-06-22T01:46:13;5.65;;;3.40;;
73779;SDS011;62093;37.614;15.072;2023-06-22T01:48:39;6.18;;;3.70;;
73779;SDS011;62093;37.614;15.072;2023-06-22T01:51:06;6.15;;;3.80;;
73779;SDS011;62093;37.614;15.072;2023-06-22T01:53:32;5.80;;;3.70;;
73779;SDS011;62093;37.614;15.072;2023-06-22T01:55:58;6.20;;;3.40;;
73779;SDS011;62093;37.614;15.072;2023-06-22T01:58:26;6.80;;;3.55;;
73779;SDS011;62093;37.614;15.072;2023-06-22T02:00:56;6.18;;;3.75;;
73779;SDS011;62093;37.614;15.072;2023-06-22T02:03:37;7.30;;;3.60;;
73779;SDS011;62093;37.614;15.072;2023-06-22T02:06:08;6.23;;;3.63;;
73779;SDS011;62093;37.614;15.072;2023-06-22T02:08:41;5.97;;;3.58;;
73779;SDS011;62093;37.614;15.072;2023-06-22T02:11:11;6.05;;;3.20;;
73779;SDS011;62093;37.614;15.072;2023-06-22T02:13:40;5.95;;;3.13;;
73779;SDS011;62093;37.614;15.072;2023-06-22T02:16:11;6.53;;;3.72;;
73779;SDS011;62093;37.614;15.072;2023-06-22T02:18:45;6.73;;;3.70;;
73779;SDS011;62093;37.614;15.072;2023-06-22T02:21:17;6.10;;;3.67;;
73779;SDS011;62093;37.614;15.072;2023-06-22T02:23:45;5.50;;;3.05;;
73779;SDS011;62093;37.614;15.072;2023-06-22T02:26:11;6.10;;;3.60;;
73779;SDS011;62093;37.614;15.072;2023-06-22T02:28:38;6.20;;;3.60;;
73779;SDS011;62093;37.614;15.072;2023-06-22T02:31:04;5.70;;;3.40;;
73779;SDS011;62093;37.614;15.072;2023-06-22T02:33:29;6.03;;;3.40;;
73779;SDS011;62093;37.614;15.072;2023-06-22T02:35:56;5.95;;;3.15;;
73779;SDS011;62093;37.614;15.072;2023-06-22T02:38:21;6.03;;;3.10;;
73779;SDS011;62093;37.614;15.072;2023-06-22T02:40:50;5.53;;;3.50;;
73779;SDS011;62093;37.614;15.072;2023-06-22T02:43:16;6.80;;;3.80;;
73779;SDS011;62093;37.614;15.072;2023-06-22T02:45:43;5.85;;;3.72;;
73779;SDS011;62093;37.614;15.072;2023-06-22T02:48:10;7.25;;;3.50;;
73779;SDS011;62093;37.614;15.072;2023-06-22T02:50:36;5.73;;;3.37;;
73779;SDS011;62093;37.614;15.072;2023-06-22T02:53:04;6.50;;;3.60;;
73779;SDS011;62093;37.614;15.072;2023-06-22T02:55:34;6.35;;;3.65;;
73779;SDS011;62093;37.614;15.072;2023-06-22T02:58:00;6.45;;;3.60;;
73779;SDS011;62093;37.614;15.072;2023-06-22T03:00:33;6.60;;;3.30;;
73779;SDS011;62093;37.614;15.072;2023-06-22T03:02:59;5.80;;;3.47;;
73779;SDS011;62093;37.614;15.072;2023-06-22T03:05:25;6.70;;;3.15;;
73779;SDS011;62093;37.614;15.072;2023-06-22T03:07:52;6.00;;;3.15;;
73779;SDS011;62093;37.614;15.072;2023-06-22T03:10:18;6.33;;;3.63;;
73779;SDS011;62093;37.614;15.072;2023-06-22T03:12:44;6.10;;;3.03;;
73779;SDS011;62093;37.614;15.072;2023-06-22T03:15:11;5.50;;;3.30;;
73779;SDS011;62093;37.614;15.072;2023-06-22T03:17:39;6.18;;;3.40;;
73779;SDS011;62093;37.614;15.072;2023-06-22T03:20:07;7.07;;;3.50;;
73779;SDS011;62093;37.614;15.072;2023-06-22T03:22:35;6.22;;;3.60;;
73779;SDS011;62093;37.614;15.072;2023-06-22T03:25:02;6.13;;;3.28;;
73779;SDS011;62093;37.614;15.072;2023-06-22T03:27:28;6.10;;;3.35;;
73779;SDS011;62093;37.614;15.072;2023-06-22T03:29:56;6.20;;;3.27;;
73779;SDS011;62093;37.614;15.072;2023-06-22T03:32:22;5.72;;;3.20;;
73779;SDS011;62093;37.614;15.072;2023-06-22T03:34:48;7.55;;;3.80;;
73779;SDS011;62093;37.614;15.072;2023-06-22T03:37:15;5.55;;;2.95;;
73779;SDS011;62093;37.614;15.072;2023-06-22T03:39:41;5.40;;;3.20;;
73779;SDS011;62093;37.614;15.072;2023-06-22T03:42:07;5.78;;;3.15;;
73779;SDS011;62093;37.614;15.072;2023-06-22T03:44:34;6.00;;;3.33;;
73779;SDS011;62093;37.614;15.072;2023-06-22T03:47:04;6.43;;;3.63;;
73779;SDS011;62093;37.614;15.072;2023-06-22T03:49:30;6.15;;;3.60;;
73779;SDS011;62093;37.614;15.072;2023-06-22T03:51:56;5.50;;;3.30;;
73779;SDS011;62093;37.614;15.072;2023-06-22T03:54:21;6.70;;;3.33;;
73779;SDS011;62093;37.614;15.072;2023-06-22T03:56:47;6.50;;;3.45;;
73779;SDS011;62093;37.614;15.072;2023-06-22T03:59:13;6.87;;;3.30;;
73779;SDS011;62093;37.614;15.072;2023-06-22T04:01:39;5.88;;;3.40;;
73779;SDS011;62093;37.614;15.072;2023-06-22T04:04:05;6.15;;;3.35;;
73779;SDS011;62093;37.614;15.072;2023-06-22T04:06:31;6.00;;;3.40;;
73779;SDS011;62093;37.614;15.072;2023-06-22T04:08:57;6.80;;;3.22;;
73779;SDS011;62093;37.614;15.072;2023-06-22T04:11:22;6.88;;;3.20;;
73779;SDS011;62093;37.614;15.072;2023-06-22T04:13:48;6.00;;;3.43;;
73779;SDS011;62093;37.614;15.072;2023-06-22T04:16:16;5.90;;;3.15;;
73779;SDS011;62093;37.614;15.072;2023-06-22T04:18:42;6.18;;;3.38;;
73779;SDS011;62093;37.614;15.072;2023-06-22T04:21:10;6.67;;;3.53;;
73779;SDS011;62093;37.614;15.072;2023-06-22T04:23:35;6.63;;;3.20;;
73779;SDS011;62093;37.614;15.072;2023-06-22T04:26:01;6.93;;;3.60;;
73779;SDS011;62093;37.614;15.072;2023-06-22T04:28:27;6.33;;;3.70;;
73779;SDS011;62093;37.614;15.072;2023-06-22T04:30:53;7.10;;;3.50;;
73779;SDS011;62093;37.614;15.072;2023-06-22T04:33:23;5.47;;;3.10;;
73779;SDS011;62093;37.614;15.072;2023-06-22T04:35:50;6.05;;;3.25;;
73779;SDS011;62093;37.614;15.072;2023-06-22T04:38:16;6.00;;;3.43;;
73779;SDS011;62093;37.614;15.072;2023-06-22T04:40:42;6.53;;;3.40;;
73779;SDS011;62093;37.614;15.072;2023-06-22T04:43:08;5.57;;;3.33;;
73779;SDS011;62093;37.614;15.072;2023-06-22T04:45:35;5.47;;;3.00;;
73779;SDS011;62093;37.614;15.072;2023-06-22T04:48:03;7.07;;;3.30;;
73779;SDS011;62093;37.614;15.072;2023-06-22T04:50:30;6.25;;;3.20;;
73779;SDS011;62093;37.614;15.072;2023-06-22T04:52:56;6.18;;;3.35;;
73779;SDS011;62093;37.614;15.072;2023-06-22T04:55:21;6.73;;;3.40;;
73779;SDS011;62093;37.614;15.072;2023-06-22T04:57:48;5.60;;;3.30;;
73779;SDS011;62093;37.614;15.072;2023-06-22T05:00:20;5.85;;;3.03;;
73779;SDS011;62093;37.614;15.072;2023-06-22T05:02:48;5.82;;;3.25;;
73779;SDS011;62093;37.614;15.072;2023-06-22T05:05:15;6.27;;;3.20;;
73779;SDS011;62093;37.614;15.072;2023-06-22T05:07:45;6.63;;;3.40;;
73779;SDS011;62093;37.614;15.072;2023-06-22T05:10:13;5.97;;;3.50;;
73779;SDS011;62093;37.614;15.072;2023-06-22T05:12:40;6.43;;;3.60;;
73779;SDS011;62093;37.614;15.072;2023-06-22T05:15:07;9.30;;;3.53;;
73779;SDS011;62093;37.614;15.072;2023-06-22T05:17:34;6.73;;;3.23;;
73779;SDS011;62093;37.614;15.072;2023-06-22T05:20:00;6.07;;;3.03;;
73779;SDS011;62093;37.614;15.072;2023-06-22T05:22:27;9.00;;;3.40;;
73779;SDS011;62093;37.614;15.072;2023-06-22T05:24:52;7.85;;;3.50;;
73779;SDS011;62093;37.614;15.072;2023-06-22T05:27:18;8.30;;;3.73;;
73779;SDS011;62093;37.614;15.072;2023-06-22T05:29:44;8.85;;;3.72;;
73779;SDS011;62093;37.614;15.072;2023-06-22T05:32:10;7.27;;;3.20;;
73779;SDS011;62093;37.614;15.072;2023-06-22T05:34:36;7.78;;;3.30;;
73779;SDS011;62093;37.614;15.072;2023-06-22T05:37:02;7.70;;;3.60;;
73779;SDS011;62093;37.614;15.072;2023-06-22T05:39:28;6.97;;;3.42;;
73779;SDS011;62093;37.614;15.072;2023-06-22T05:41:54;7.00;;;3.37;;
73779;SDS011;62093;37.614;15.072;2023-06-22T05:44:19;9.10;;;3.67;;
73779;SDS011;62093;37.614;15.072;2023-06-22T05:46:45;10.67;;;3.27;;
73779;SDS011;62093;37.614;15.072;2023-06-22T05:49:12;7.07;;;3.58;;
73779;SDS011;62093;37.614;15.072;2023-06-22T05:51:39;7.13;;;3.22;;
73779;SDS011;62093;37.614;15.072;2023-06-22T05:54:05;6.68;;;3.35;;
73779;SDS011;62093;37.614;15.072;2023-06-22T05:56:31;7.77;;;3.50;;
73779;SDS011;62093;37.614;15.072;2023-06-22T05:58:56;7.05;;;3.22;;
73779;SDS011;62093;37.614;15.072;2023-06-22T06:01:22;7.00;;;2.90;;
73779;SDS011;62093;37.614;15.072;2023-06-22T06:03:48;6.35;;;3.05;;
73779;SDS011;62093;37.614;15.072;2023-06-22T06:06:15;6.97;;;3.50;;
73779;SDS011;62093;37.614;15.072;2023-06-22T06:08:41;6.38;;;3.10;;
73779;SDS011;62093;37.614;15.072;2023-06-22T06:11:07;7.17;;;3.33;;
73779;SDS011;62093;37.614;15.072;2023-06-22T06:13:33;7.07;;;3.40;;
73779;SDS011;62093;37.614;15.072;2023-06-22T06:15:59;8.40;;;3.33;;
73779;SDS011;62093;37.614;15.072;2023-06-22T06:18:25;6.93;;;3.30;;
73779;SDS011;62093;37.614;15.072;2023-06-22T06:20:50;7.18;;;3.40;;
73779;SDS011;62093;37.614;15.072;2023-06-22T06:23:16;8.10;;;3.50;;
73779;SDS011;62093;37.614;15.072;2023-06-22T06:25:42;7.90;;;3.90;;
73779;SDS011;62093;37.614;15.072;2023-06-22T06:28:08;7.68;;;3.38;;
73779;SDS011;62093;37.614;15.072;2023-06-22T06:30:34;6.97;;;3.17;;
73779;SDS011;62093;37.614;15.072;2023-06-22T06:33:02;7.30;;;3.45;;
73779;SDS011;62093;37.614;15.072;2023-06-22T06:35:30;8.35;;;3.60;;
73779;SDS011;62093;37.614;15.072;2023-06-22T06:37:56;6.13;;;2.80;;
73779;SDS011;62093;37.614;15.072;2023-06-22T06:40:22;7.00;;;3.45;;
73779;SDS011;62093;37.614;15.072;2023-06-22T06:42:48;7.30;;;3.70;;
73779;SDS011;62093;37.614;15.072;2023-06-22T06:45:19;6.57;;;3.08;;
73779;SDS011;62093;37.614;15.072;2023-06-22T06:47:47;6.50;;;3.17;;
73779;SDS011;62093;37.614;15.072;2023-06-22T06:50:14;7.47;;;3.08;;
73779;SDS011;62093;37.614;15.072;2023-06-22T06:52:40;6.85;;;3.45;;
73779;SDS011;62093;37.614;15.072;2023-06-22T06:55:07;7.73;;;3.30;;
73779;SDS011;62093;37.614;15.072;2023-06-22T06:57:37;5.88;;;3.00;;
73779;SDS011;62093;37.614;15.072;2023-06-22T07:00:07;5.57;;;3.20;;
73779;SDS011;62093;37.614;15.072;2023-06-22T07:02:44;5.60;;;2.92;;
73779;SDS011;62093;37.614;15.072;2023-06-22T07:05:11;5.70;;;2.95;;
73779;SDS011;62093;37.614;15.072;2023-06-22T07:07:38;7.00;;;3.40;;
73779;SDS011;62093;37.614;15.072;2023-06-22T07:10:04;6.43;;;3.08;;
73779;SDS011;62093;37.614;15.072;2023-06-22T07:12:31;7.38;;;3.30;;
73779;SDS011;62093;37.614;15.072;2023-06-22T07:15:07;6.60;;;3.20;;
73779;SDS011;62093;37.614;15.072;2023-06-22T07:17:34;6.13;;;3.00;;
73779;SDS011;62093;37.614;15.072;2023-06-22T07:20:01;6.22;;;3.13;;
73779;SDS011;62093;37.614;15.072;2023-06-22T07:22:29;6.63;;;3.00;;
73779;SDS011;62093;37.614;15.072;2023-06-22T07:24:55;6.10;;;2.80;;
73779;SDS011;62093;37.614;15.072;2023-06-22T07:27:21;7.47;;;3.08;;
73779;SDS011;62093;37.614;15.072;2023-06-22T07:29:47;6.97;;;3.30;;
73779;SDS011;62093;37.614;15.072;2023-06-22T07:32:13;6.70;;;3.08;;
73779;SDS011;62093;37.614;15.072;2023-06-22T07:34:39;6.53;;;2.97;;
73779;SDS011;62093;37.614;15.072;2023-06-22T07:37:05;6.93;;;3.03;;
73779;SDS011;62093;37.614;15.072;2023-06-22T07:39:30;6.50;;;3.03;;
73779;SDS011;62093;37.614;15.072;2023-06-22T07:41:56;6.40;;;3.30;;
73779;SDS011;62093;37.614;15.072;2023-06-22T07:44:22;7.05;;;3.20;;
73779;SDS011;62093;37.614;15.072;2023-06-22T07:46:49;7.15;;;3.30;;
73779;SDS011;62093;37.614;15.072;2023-06-22T07:49:14;6.37;;;2.93;;
73779;SDS011;62093;37.614;15.072;2023-06-22T07:51:41;6.78;;;3.40;;
73779;SDS011;62093;37.614;15.072;2023-06-22T07:54:08;6.18;;;3.25;;
73779;SDS011;62093;37.614;15.072;2023-06-22T07:56:35;5.73;;;2.73;;
73779;SDS011;62093;37.614;15.072;2023-06-22T07:59:02;5.57;;;2.92;;
73779;SDS011;62093;37.614;15.072;2023-06-22T08:01:29;6.63;;;3.05;;
73779;SDS011;62093;37.614;15.072;2023-06-22T08:03:55;6.30;;;3.00;;
73779;SDS011;62093;37.614;15.072;2023-06-22T08:06:21;5.78;;;3.05;;
73779;SDS011;62093;37.614;15.072;2023-06-22T08:08:47;6.20;;;3.00;;
73779;SDS011;62093;37.614;15.072;2023-06-22T08:11:14;6.90;;;3.05;;
73779;SDS011;62093;37.614;15.072;2023-06-22T08:13:40;6.60;;;3.20;;
73779;SDS011;62093;37.614;15.072;2023-06-22T08:16:05;6.07;;;2.90;;
73779;SDS011;62093;37.614;15.072;2023-06-22T08:18:32;6.05;;;3.20;;
73779;SDS011;62093;37.614;15.072;2023-06-22T08:20:58;6.00;;;2.83;;
73779;SDS011;62093;37.614;15.072;2023-06-22T08:23:24;5.67;;;2.80;;
73779;SDS011;62093;37.614;15.072;2023-06-22T08:25:50;6.18;;;3.28;;
73779;SDS011;62093;37.614;15.072;2023-06-22T08:28:16;6.03;;;3.38;;
73779;SDS011;62093;37.614;15.072;2023-06-22T08:30:42;6.10;;;2.83;;
73779;SDS011;62093;37.614;15.072;2023-06-22T08:33:08;5.38;;;2.63;;
73779;SDS011;62093;37.614;15.072;2023-06-22T08:35:33;6.20;;;3.10;;
73779;SDS011;62093;37.614;15.072;2023-06-22T08:37:59;6.40;;;2.88;;
73779;SDS011;62093;37.614;15.072;2023-06-22T08:40:27;6.55;;;3.10;;
73779;SDS011;62093;37.614;15.072;2023-06-22T08:42:54;6.60;;;2.95;;
73779;SDS011;62093;37.614;15.072;2023-06-22T08:45:20;7.03;;;3.10;;
73779;SDS011;62093;37.614;15.072;2023-06-22T08:47:46;7.07;;;3.30;;
73779;SDS011;62093;37.614;15.072;2023-06-22T08:50:12;6.88;;;3.22;;
73779;SDS011;62093;37.614;15.072;2023-06-22T08:52:39;6.57;;;3.20;;
73779;SDS011;62093;37.614;15.072;2023-06-22T08:55:09;5.63;;;3.20;;
73779;SDS011;62093;37.614;15.072;2023-06-22T08:57:35;4.90;;;2.90;;
73779;SDS011;62093;37.614;15.072;2023-06-22T09:00:07;5.65;;;2.80;;
73779;SDS011;62093;37.614;15.072;2023-06-22T09:02:40;5.50;;;2.85;;
73779;SDS011;62093;37.614;15.072;2023-06-22T09:05:06;7.87;;;3.10;;
73779;SDS011;62093;37.614;15.072;2023-06-22T09:07:32;7.28;;;2.70;;
73779;SDS011;62093;37.614;15.072;2023-06-22T09:09:59;6.43;;;2.60;;
73779;SDS011;62093;37.614;15.072;2023-06-22T09:12:25;5.78;;;3.00;;
73779;SDS011;62093;37.614;15.072;2023-06-22T09:14:52;6.20;;;3.40;;
73779;SDS011;62093;37.614;15.072;2023-06-22T09:17:19;6.97;;;2.93;;
73779;SDS011;62093;37.614;15.072;2023-06-22T09:19:45;6.28;;;2.72;;
73779;SDS011;62093;37.614;15.072;2023-06-22T09:22:11;5.95;;;2.90;;
73779;SDS011;62093;37.614;15.072;2023-06-22T09:24:37;6.07;;;3.47;;
73779;SDS011;62093;37.614;15.072;2023-06-22T09:27:03;5.33;;;2.77;;
73779;SDS011;62093;37.614;15.072;2023-06-22T09:29:29;5.22;;;2.60;;
73779;SDS011;62093;37.614;15.072;2023-06-22T09:31:54;5.45;;;3.00;;
73779;SDS011;62093;37.614;15.072;2023-06-22T09:34:21;7.20;;;2.97;;
73779;SDS011;62093;37.614;15.072;2023-06-22T09:36:47;5.70;;;2.70;;
73779;SDS011;62093;37.614;15.072;2023-06-22T09:39:13;6.72;;;3.15;;
73779;SDS011;62093;37.614;15.072;2023-06-22T09:41:38;7.60;;;3.00;;
73779;SDS011;62093;37.614;15.072;2023-06-22T09:44:04;5.80;;;2.73;;
73779;SDS011;62093;37.614;15.072;2023-06-22T09:46:30;5.43;;;2.72;;
73779;SDS011;62093;37.614;15.072;2023-06-22T09:48:56;5.50;;;2.90;;
73779;SDS011;62093;37.614;15.072;2023-06-22T09:51:22;6.07;;;2.90;;
73779;SDS011;62093;37.614;15.072;2023-06-22T09:53:49;6.50;;;3.13;;
73779;SDS011;62093;37.614;15.072;2023-06-22T09:56:16;6.45;;;2.80;;
73779;SDS011;62093;37.614;15.072;2023-06-22T09:58:42;5.60;;;2.95;;
73779;SDS011;62093;37.614;15.072;2023-06-22T10:01:09;6.70;;;3.00;;
73779;SDS011;62093;37.614;15.072;2023-06-22T10:03:39;5.57;;;2.85;;
73779;SDS011;62093;37.614;15.072;2023-06-22T10:06:06;6.00;;;2.97;;
73779;SDS011;62093;37.614;15.072;2023-06-22T10:08:34;6.60;;;3.25;;
73779;SDS011;62093;37.614;15.072;2023-06-22T10:11:00;5.65;;;2.80;;
73779;SDS011;62093;37.614;15.072;2023-06-22T10:13:26;6.13;;;3.17;;
73779;SDS011;62093;37.614;15.072;2023-06-22T10:15:52;6.68;;;2.72;;
73779;SDS011;62093;37.614;15.072;2023-06-22T10:18:18;5.60;;;3.00;;
73779;SDS011;62093;37.614;15.072;2023-06-22T10:20:47;6.18;;;2.75;;
73779;SDS011;62093;37.614;15.072;2023-06-22T10:23:18;6.10;;;2.90;;
73779;SDS011;62093;37.614;15.072;2023-06-22T10:25:47;6.97;;;3.03;;
73779;SDS011;62093;37.614;15.072;2023-06-22T10:28:13;6.70;;;2.90;;
73779;SDS011;62093;37.614;15.072;2023-06-22T10:30:39;6.40;;;3.33;;
73779;SDS011;62093;37.614;15.072;2023-06-22T10:33:10;5.65;;;3.00;;
73779;SDS011;62093;37.614;15.072;2023-06-22T10:35:36;5.93;;;2.67;;
73779;SDS011;62093;37.614;15.072;2023-06-22T10:38:05;6.00;;;3.33;;
73779;SDS011;62093;37.614;15.072;2023-06-22T10:40:32;6.00;;;2.90;;
73779;SDS011;62093;37.614;15.072;2023-06-22T10:42:57;5.57;;;2.83;;
73779;SDS011;62093;37.614;15.072;2023-06-22T10:45:23;6.43;;;3.30;;
73779;SDS011;62093;37.614;15.072;2023-06-22T10:47:49;6.32;;;3.15;;
73779;SDS011;62093;37.614;15.072;2023-06-22T10:50:15;5.32;;;2.80;;
73779;SDS011;62093;37.614;15.072;2023-06-22T10:52:41;6.80;;;2.80;;
73779;SDS011;62093;37.614;15.072;2023-06-22T10:55:08;5.97;;;2.70;;
73779;SDS011;62093;37.614;15.072;2023-06-22T10:57:34;5.78;;;2.97;;
73779;SDS011;62093;37.614;15.072;2023-06-22T11:00:00;6.68;;;3.25;;
73779;SDS011;62093;37.614;15.072;2023-06-22T11:02:26;5.87;;;3.20;;
73779;SDS011;62093;37.614;15.072;2023-06-22T11:04:53;6.03;;;3.00;;
73779;SDS011;62093;37.614;15.072;2023-06-22T11:07:19;6.97;;;2.85;;
73779;SDS011;62093;37.614;15.072;2023-06-22T11:09:45;6.47;;;2.83;;
73779;SDS011;62093;37.614;15.072;2023-06-22T11:12:11;5.85;;;2.90;;
73779;SDS011;62093;37.614;15.072;2023-06-22T11:14:38;5.53;;;3.00;;
73779;SDS011;62093;37.614;15.072;2023-06-22T11:17:04;6.25;;;3.00;;
73779;SDS011;62093;37.614;15.072;2023-06-22T11:19:30;6.70;;;2.80;;
73779;SDS011;62093;37.614;15.072;2023-06-22T11:21:56;6.13;;;2.90;;
73779;SDS011;62093;37.614;15.072;2023-06-22T11:24:22;6.57;;;2.77;;
73779;SDS011;62093;37.614;15.072;2023-06-22T11:26:48;5.55;;;2.90;;
73779;SDS011;62093;37.614;15.072;2023-06-22T11:29:14;6.32;;;2.78;;
73779;SDS011;62093;37.614;15.072;2023-06-22T11:31:40;5.72;;;3.08;;
73779;SDS011;62093;37.614;15.072;2023-06-22T11:34:08;6.00;;;3.33;;
73779;SDS011;62093;37.614;15.072;2023-06-22T11:36:33;5.40;;;2.70;;
73779;SDS011;62093;37.614;15.072;2023-06-22T11:39:01;5.28;;;2.88;;
73779;SDS011;62093;37.614;15.072;2023-06-22T11:41:26;5.70;;;3.00;;
73779;SDS011;62093;37.614;15.072;2023-06-22T11:43:52;5.80;;;2.90;;
73779;SDS011;62093;37.614;15.072;2023-06-22T11:46:18;6.45;;;2.92;;
73779;SDS011;62093;37.614;15.072;2023-06-22T11:48:44;5.65;;;3.05;;
73779;SDS011;62093;37.614;15.072;2023-06-22T11:51:10;5.23;;;2.57;;
73779;SDS011;62093;37.614;15.072;2023-06-22T11:53:36;5.93;;;2.92;;
73779;SDS011;62093;37.614;15.072;2023-06-22T11:56:02;7.20;;;3.23;;
73779;SDS011;62093;37.614;15.072;2023-06-22T11:58:28;5.65;;;2.90;;
73779;SDS011;62093;37.614;15.072;2023-06-22T12:00:54;5.90;;;3.00;;
73779;SDS011;62093;37.614;15.072;2023-06-22T12:03:20;6.45;;;2.95;;
73779;SDS011;62093;37.614;15.072;2023-06-22T12:05:49;6.82;;;3.10;;
73779;SDS011;62093;37.614;15.072;2023-06-22T12:08:19;5.80;;;3.23;;
73779;SDS011;62093;37.614;15.072;2023-06-22T12:10:45;6.32;;;2.97;;
73779;SDS011;62093;37.614;15.072;2023-06-22T12:13:11;6.13;;;2.88;;
73779;SDS011;62093;37.614;15.072;2023-06-22T12:15:37;5.30;;;2.90;;
73779;SDS011;62093;37.614;15.072;2023-06-22T12:18:02;5.40;;;2.90;;
73779;SDS011;62093;37.614;15.072;2023-06-22T12:20:28;5.50;;;2.80;;
73779;SDS011;62093;37.614;15.072;2023-06-22T12:22:54;6.35;;;3.03;;
73779;SDS011;62093;37.614;15.072;2023-06-22T12:25:21;6.70;;;3.20;;
73779;SDS011;62093;37.614;15.072;2023-06-22T12:27:48;6.50;;;3.15;;
73779;SDS011;62093;37.614;15.072;2023-06-22T12:30:15;6.97;;;3.30;;
73779;SDS011;62093;37.614;15.072;2023-06-22T12:32:41;6.00;;;3.13;;
73779;SDS011;62093;37.614;15.072;2023-06-22T12:35:07;5.67;;;2.90;;
73779;SDS011;62093;37.614;15.072;2023-06-22T12:37:42;6.20;;;3.10;;
73779;SDS011;62093;37.614;15.072;2023-06-22T12:40:09;5.38;;;2.90;;
73779;SDS011;62093;37.614;15.072;2023-06-22T12:42:35;5.85;;;3.08;;
73779;SDS011;62093;37.614;15.072;2023-06-22T12:45:01;5.32;;;2.90;;
73779;SDS011;62093;37.614;15.072;2023-06-22T12:47:27;6.13;;;2.90;;
73779;SDS011;62093;37.614;15.072;2023-06-22T12:49:53;6.43;;;3.28;;
73779;SDS011;62093;37.614;15.072;2023-06-22T12:52:18;6.03;;;2.80;;
73779;SDS011;62093;37.614;15.072;2023-06-22T12:54:44;5.63;;;3.20;;
73779;SDS011;62093;37.614;15.072;2023-06-22T12:57:10;5.85;;;3.40;;
73779;SDS011;62093;37.614;15.072;2023-06-22T12:59:36;6.05;;;3.03;;
73779;SDS011;62093;37.614;15.072;2023-06-22T13:02:02;6.67;;;2.83;;
73779;SDS011;62093;37.614;15.072;2023-06-22T13:04:28;6.07;;;3.03;;
73779;SDS011;62093;37.614;15.072;2023-06-22T13:06:54;5.88;;;2.92;;
73779;SDS011;62093;37.614;15.072;2023-06-22T13:09:20;5.73;;;3.10;;
73779;SDS011;62093;37.614;15.072;2023-06-22T13:11:45;5.13;;;2.90;;
73779;SDS011;62093;37.614;15.072;2023-06-22T13:14:11;5.38;;;2.53;;
73779;SDS011;62093;37.614;15.072;2023-06-22T13:16:37;6.30;;;3.03;;
73779;SDS011;62093;37.614;15.072;2023-06-22T13:19:03;6.28;;;2.75;;
73779;SDS011;62093;37.614;15.072;2023-06-22T13:21:29;6.43;;;3.40;;
73779;SDS011;62093;37.614;15.072;2023-06-22T13:23:56;6.18;;;3.13;;
73779;SDS011;62093;37.614;15.072;2023-06-22T13:26:22;5.80;;;3.10;;
73779;SDS011;62093;37.614;15.072;2023-06-22T13:28:47;5.93;;;3.20;;
73779;SDS011;62093;37.614;15.072;2023-06-22T13:31:13;6.55;;;3.08;;
73779;SDS011;62093;37.614;15.072;2023-06-22T13:33:39;5.87;;;3.03;;
73779;SDS011;62093;37.614;15.072;2023-06-22T13:36:06;6.10;;;3.03;;
73779;SDS011;62093;37.614;15.072;2023-06-22T13:38:34;5.75;;;2.88;;
73779;SDS011;62093;37.614;15.072;2023-06-22T13:41:04;6.03;;;2.90;;
73779;SDS011;62093;37.614;15.072;2023-06-22T13:43:30;5.80;;;3.17;;
73779;SDS011;62093;37.614;15.072;2023-06-22T13:45:56;5.57;;;2.70;;
73779;SDS011;62093;37.614;15.072;2023-06-22T13:48:21;6.10;;;3.00;;
73779;SDS011;62093;37.614;15.072;2023-06-22T13:50:48;6.22;;;3.10;;
73779;SDS011;62093;37.614;15.072;2023-06-22T13:53:14;5.63;;;2.93;;
73779;SDS011;62093;37.614;15.072;2023-06-22T13:55:40;5.93;;;2.80;;
73779;SDS011;62093;37.614;15.072;2023-06-22T13:58:06;5.28;;;2.78;;
73779;SDS011;62093;37.614;15.072;2023-06-22T14:00:32;6.50;;;2.97;;
73779;SDS011;62093;37.614;15.072;2023-06-22T14:02:58;6.32;;;3.08;;
73779;SDS011;62093;37.614;15.072;2023-06-22T14:05:23;6.10;;;3.15;;
73779;SDS011;62093;37.614;15.072;2023-06-22T14:07:49;5.57;;;3.10;;
73779;SDS011;62093;37.614;15.072;2023-06-22T14:10:15;5.55;;;2.60;;
73779;SDS011;62093;37.614;15.072;2023-06-22T14:12:41;5.77;;;3.10;;
73779;SDS011;62093;37.614;15.072;2023-06-22T14:15:06;5.53;;;3.10;;
73779;SDS011;62093;37.614;15.072;2023-06-22T14:17:33;5.57;;;3.10;;
73779;SDS011;62093;37.614;15.072;2023-06-22T14:19:58;5.63;;;2.80;;
73779;SDS011;62093;37.614;15.072;2023-06-22T14:22:24;5.90;;;3.35;;
73779;SDS011;62093;37.614;15.072;2023-06-22T14:24:51;5.43;;;3.10;;
73779;SDS011;62093;37.614;15.072;2023-06-22T14:27:16;5.60;;;2.77;;
73779;SDS011;62093;37.614;15.072;2023-06-22T14:29:42;5.68;;;3.20;;
73779;SDS011;62093;37.614;15.072;2023-06-22T14:32:08;5.50;;;3.00;;
73779;SDS011;62093;37.614;15.072;2023-06-22T14:34:34;5.60;;;2.70;;
73779;SDS011;62093;37.614;15.072;2023-06-22T14:37:01;5.93;;;3.22;;
73779;SDS011;62093;37.614;15.072;2023-06-22T14:39:27;5.20;;;3.00;;